Time;durP1;ratioP1;P1;durP2;ratioP2;P2;SDS_P1;SDS_P2;PMS_P1;PMS_P2;Temp;Humidity;BMP_temperature;BMP_pressure;BME280_temperature;BME280_humidity;BME280_pressure;Samples;Min_cycle;Max_cycle;Signal;HPM_P1;HPM_P2
2021/08/08 00:00:01;;;;;;;10.00;4.25;;;18.20;99.90;;;;;;5055809;28;20072;-74
2021/08/08 00:02:26;;;;;;;8.75;3.45;;;18.20;99.90;;;;;;5053456;28;20120;-76
2021/08/08 00:04:53;;;;;;;6.68;4.10;;;18.10;99.90;;;;;;5052038;28;20451;-74
2021/08/08 00:07:18;;;;;;;9.32;4.40;;;18.10;99.90;;;;;;5051442;28;20052;-75
2021/08/08 00:09:45;;;;;;;9.85;4.10;;;18.20;99.90;;;;;;5056476;28;20063;-74
2021/08/08 00:12:12;;;;;;;8.20;4.32;;;18.20;99.90;;;;;;5068047;28;20021;-75
2021/08/08 00:14:38;;;;;;;6.68;3.95;;;18.10;99.90;;;;;;5055737;28;20029;-75
2021/08/08 00:17:05;;;;;;;10.27;4.40;;;18.10;99.90;;;;;;5059794;28;20034;-75
2021/08/08 00:19:31;;;;;;;13.80;4.80;;;18.20;99.90;;;;;;5048070;28;20026;-76
2021/08/08 00:21:57;;;;;;;11.95;4.65;;;18.10;99.90;;;;;;5058787;28;20040;-76
2021/08/08 00:24:23;;;;;;;12.38;4.78;;;18.10;99.90;;;;;;5065059;28;20021;-75
2021/08/08 00:26:48;;;;;;;9.55;4.63;;;18.20;99.90;;;;;;5053423;28;20026;-76
2021/08/08 00:29:14;;;;;;;8.63;5.13;;;18.30;99.90;;;;;;5060209;28;20392;-76
2021/08/08 00:31:39;;;;;;;9.02;4.45;;;18.20;99.90;;;;;;5050541;28;20099;-76
2021/08/08 00:34:05;;;;;;;11.48;5.50;;;18.20;99.90;;;;;;5049857;28;20055;-75
2021/08/08 00:36:33;;;;;;;11.60;5.35;;;18.30;99.90;;;;;;5053042;28;20082;-75
2021/08/08 00:39:00;;;;;;;13.43;4.95;;;18.20;99.90;;;;;;5054958;28;20075;-75
2021/08/08 00:41:25;;;;;;;12.45;5.07;;;18.20;99.90;;;;;;5052620;28;20021;-75
2021/08/08 00:43:51;;;;;;;13.65;5.05;;;18.10;99.90;;;;;;5050689;28;20025;-75
2021/08/08 00:46:17;;;;;;;8.68;5.47;;;18.10;99.90;;;;;;5055305;28;20035;-75
2021/08/08 00:48:42;;;;;;;9.45;5.32;;;18.20;99.90;;;;;;5056198;28;20035;-75
2021/08/08 00:51:08;;;;;;;15.82;5.25;;;18.10;99.90;;;;;;5030275;28;20025;-76
2021/08/08 00:53:34;;;;;;;15.52;5.50;;;18.20;99.90;;;;;;5059359;28;20472;-75
2021/08/08 00:55:59;;;;;;;10.70;4.45;;;18.10;99.90;;;;;;5048746;28;20044;-76
2021/08/08 00:58:26;;;;;;;13.40;5.63;;;18.10;99.90;;;;;;5049853;28;20247;-76
2021/08/08 01:00:56;;;;;;;14.27;5.30;;;18.10;99.90;;;;;;5049060;28;20100;-75
2021/08/08 01:03:23;;;;;;;13.85;5.35;;;18.10;99.90;;;;;;5053016;28;20047;-76
2021/08/08 01:05:52;;;;;;;10.55;5.18;;;18.20;99.90;;;;;;5061582;28;20108;-75
2021/08/08 01:08:28;;;;;;;12.18;5.13;;;18.10;99.90;;;;;;5053336;28;20020;-75
2021/08/08 01:10:54;;;;;;;12.38;5.72;;;18.10;99.90;;;;;;5045988;28;20021;-76
2021/08/08 01:13:21;;;;;;;13.60;5.60;;;18.10;99.90;;;;;;5053372;28;20032;-76
2021/08/08 01:15:50;;;;;;;15.35;5.20;;;18.10;99.90;;;;;;5049364;28;20576;-76
2021/08/08 01:18:17;;;;;;;13.57;5.05;;;18.00;99.90;;;;;;5029588;28;20354;-76
2021/08/08 01:20:44;;;;;;;12.75;4.72;;;18.10;99.90;;;;;;5060709;28;20024;-74
2021/08/08 01:23:12;;;;;;;17.60;5.30;;;18.00;99.90;;;;;;5056546;28;20067;-76
2021/08/08 01:25:39;;;;;;;11.70;5.10;;;18.00;99.90;;;;;;5059531;28;20050;-75
2021/08/08 01:28:05;;;;;;;13.43;4.72;;;18.10;99.90;;;;;;5050926;28;20492;-76
2021/08/08 01:30:30;;;;;;;12.80;5.05;;;18.10;99.90;;;;;;5064432;28;20028;-76
2021/08/08 01:33:04;;;;;;;12.70;5.43;;;18.20;99.90;;;;;;5046472;28;20189;-75
2021/08/08 01:35:31;;;;;;;14.35;5.10;;;18.10;99.90;;;;;;5054925;28;20037;-75
2021/08/08 01:37:57;;;;;;;14.65;5.40;;;18.10;99.90;;;;;;5061774;28;20021;-75
2021/08/08 01:40:34;;;;;;;13.88;4.97;;;18.10;99.90;;;;;;5046446;28;20365;-74
2021/08/08 01:43:04;;;;;;;12.35;4.82;;;18.10;99.90;;;;;;5055867;28;20037;-75
2021/08/08 01:45:30;;;;;;;14.48;4.85;;;18.10;99.90;;;;;;5061183;28;20397;-76
2021/08/08 01:47:59;;;;;;;13.07;4.78;;;18.20;99.90;;;;;;5056270;28;20065;-75
2021/08/08 01:50:31;;;;;;;11.73;4.38;;;18.20;99.90;;;;;;5048022;28;20052;-75
2021/08/08 01:52:58;;;;;;;14.27;4.85;;;18.20;99.90;;;;;;5043132;28;20017;-76
2021/08/08 01:55:25;;;;;;;19.13;5.20;;;18.20;99.90;;;;;;5048867;28;20467;-75
2021/08/08 01:57:50;;;;;;;13.85;4.20;;;18.10;99.90;;;;;;5047880;28;20538;-74
2021/08/08 02:00:19;;;;;;;12.10;4.47;;;18.10;99.90;;;;;;5051812;28;20469;-75
2021/08/08 02:02:54;;;;;;;14.18;4.03;;;18.00;99.90;;;;;;5061621;28;20038;-75
2021/08/08 02:05:22;;;;;;;10.18;4.10;;;18.00;99.90;;;;;;5052564;28;20108;-75
2021/08/08 02:07:48;;;;;;;12.45;3.80;;;17.90;99.90;;;;;;5056643;28;20528;-76
2021/08/08 02:10:14;;;;;;;11.30;3.67;;;18.00;99.90;;;;;;5061160;28;20025;-76
2021/08/08 02:12:40;;;;;;;12.60;4.97;;;18.00;99.90;;;;;;5047059;28;20033;-75
2021/08/08 02:15:06;;;;;;;13.23;4.15;;;18.00;99.90;;;;;;5049576;28;20032;-75
2021/08/08 02:17:32;;;;;;;10.55;4.68;;;18.00;99.90;;;;;;5048020;28;20463;-76
2021/08/08 02:19:58;;;;;;;15.18;4.78;;;18.00;99.90;;;;;;5059558;28;20021;-74
2021/08/08 02:22:24;;;;;;;10.98;3.95;;;17.80;99.90;;;;;;5055293;28;20500;-75
2021/08/08 02:24:50;;;;;;;9.32;3.72;;;17.80;99.90;;;;;;5055754;28;20017;-76
2021/08/08 02:27:15;;;;;;;14.80;4.28;;;17.80;99.90;;;;;;5056261;28;20047;-75
2021/08/08 02:29:41;;;;;;;15.02;4.15;;;17.90;99.90;;;;;;5048162;28;20493;-75
2021/08/08 02:32:07;;;;;;;17.50;5.07;;;17.90;99.90;;;;;;5054649;28;20087;-75
2021/08/08 02:34:32;;;;;;;16.65;4.35;;;17.80;99.90;;;;;;5053472;28;20059;-75
2021/08/08 02:36:58;;;;;;;16.17;4.40;;;17.80;99.90;;;;;;5048090;28;20025;-75
2021/08/08 02:39:23;;;;;;;11.50;3.85;;;17.90;99.90;;;;;;5056826;28;20029;-75
2021/08/08 02:41:49;;;;;;;13.48;3.95;;;17.90;99.90;;;;;;5052664;28;20041;-77
2021/08/08 02:44:15;;;;;;;11.80;4.30;;;17.90;99.90;;;;;;5056871;28;20024;-75
2021/08/08 02:46:40;;;;;;;18.05;4.38;;;18.00;99.90;;;;;;5052520;28;20079;-75
2021/08/08 02:49:06;;;;;;;12.95;4.63;;;17.80;99.90;;;;;;5050759;28;20028;-75
2021/08/08 02:51:32;;;;;;;14.43;4.45;;;17.90;99.90;;;;;;5050321;28;20488;-75
2021/08/08 02:53:57;;;;;;;12.18;4.10;;;17.90;99.90;;;;;;5051670;28;20021;-75
2021/08/08 02:56:23;;;;;;;17.20;4.68;;;17.90;99.90;;;;;;5048304;28;20233;-74
2021/08/08 02:58:48;;;;;;;14.00;4.28;;;17.90;99.90;;;;;;5053992;28;20013;-76
2021/08/08 03:01:15;;;;;;;16.95;4.00;;;17.80;99.90;;;;;;5059291;28;20511;-75
2021/08/08 03:03:40;;;;;;;15.70;4.07;;;17.70;99.90;;;;;;5055205;28;20148;-75
2021/08/08 03:06:13;;;;;;;11.75;3.83;;;17.80;99.90;;;;;;5046296;28;20103;-74
2021/08/08 03:08:42;;;;;;;15.00;4.07;;;17.80;99.90;;;;;;5056400;28;20033;-75
2021/08/08 03:11:09;;;;;;;16.73;4.43;;;17.70;99.90;;;;;;5049988;28;20376;-75
2021/08/08 03:13:35;;;;;;;10.38;3.80;;;17.80;99.90;;;;;;5049711;28;20078;-75
2021/08/08 03:16:00;;;;;;;14.18;4.60;;;17.80;99.90;;;;;;5055143;28;20380;-75
2021/08/08 03:18:26;;;;;;;14.82;4.30;;;17.90;99.90;;;;;;5050367;28;20029;-74
2021/08/08 03:20:52;;;;;;;15.25;4.18;;;18.00;99.90;;;;;;5048952;28;20036;-75
2021/08/08 03:23:18;;;;;;;18.20;4.70;;;17.90;99.90;;;;;;5054445;28;20040;-75
2021/08/08 03:25:45;;;;;;;13.32;4.60;;;17.90;99.90;;;;;;5061122;28;20028;-75
2021/08/08 03:28:10;;;;;;;14.93;3.97;;;17.90;99.90;;;;;;5049705;28;20488;-75
2021/08/08 03:30:36;;;;;;;17.58;4.35;;;17.80;99.90;;;;;;5056831;28;20480;-75
2021/08/08 03:33:02;;;;;;;19.80;4.18;;;17.70;99.90;;;;;;5058069;28;20031;-76
2021/08/08 03:35:28;;;;;;;17.15;4.43;;;17.70;99.90;;;;;;5054579;28;20106;-74
2021/08/08 03:37:55;;;;;;;15.80;4.32;;;17.70;99.90;;;;;;5051931;28;20069;-75
2021/08/08 03:40:21;;;;;;;13.52;4.03;;;17.70;99.90;;;;;;5055043;28;20017;-75
2021/08/08 03:42:47;;;;;;;12.57;3.92;;;17.70;99.90;;;;;;5058995;28;20048;-75
2021/08/08 03:45:13;;;;;;;17.73;4.88;;;17.70;99.90;;;;;;5063791;28;20485;-75
2021/08/08 03:47:38;;;;;;;12.77;4.20;;;17.70;99.90;;;;;;5062714;28;20039;-74
2021/08/08 03:50:05;;;;;;;12.10;4.80;;;17.60;99.90;;;;;;5051489;28;20079;-75
2021/08/08 03:52:31;;;;;;;13.75;3.80;;;17.60;99.90;;;;;;5060474;28;20021;-74
2021/08/08 03:54:56;;;;;;;16.60;4.03;;;17.70;99.90;;;;;;5062668;28;20373;-75
2021/08/08 03:57:22;;;;;;;17.48;4.05;;;17.70;99.90;;;;;;5055587;28;20091;-74
2021/08/08 03:59:47;;;;;;;19.02;5.22;;;17.60;99.90;;;;;;5056422;28;20389;-75
2021/08/08 04:02:13;;;;;;;15.80;4.55;;;17.60;99.90;;;;;;5050969;28;20025;-74
2021/08/08 04:04:39;;;;;;;17.20;4.03;;;17.60;99.90;;;;;;5065435;28;20032;-74
2021/08/08 04:07:04;;;;;;;23.65;4.95;;;17.70;99.90;;;;;;5061494;28;20469;-74
2021/08/08 04:09:30;;;;;;;15.02;4.22;;;17.60;99.90;;;;;;5049044;28;20470;-74
2021/08/08 04:11:55;;;;;;;15.57;4.43;;;17.60;99.90;;;;;;5054549;28;20025;-74
2021/08/08 04:14:21;;;;;;;15.77;5.00;;;17.60;99.90;;;;;;5049136;28;20597;-74
2021/08/08 04:16:47;;;;;;;16.77;3.90;;;17.50;99.90;;;;;;5054696;28;20017;-74
2021/08/08 04:19:12;;;;;;;20.85;5.55;;;17.60;99.90;;;;;;5065486;28;20484;-74
2021/08/08 04:21:38;;;;;;;11.10;4.28;;;17.60;99.90;;;;;;5048503;28;20021;-74
2021/08/08 04:24:04;;;;;;;17.75;5.38;;;17.60;99.90;;;;;;5053663;28;20045;-75
2021/08/08 04:26:30;;;;;;;17.45;4.43;;;17.70;99.90;;;;;;5063116;28;20064;-74
2021/08/08 04:28:55;;;;;;;17.00;4.28;;;17.70;99.90;;;;;;5058025;28;20480;-74
2021/08/08 04:31:21;;;;;;;21.25;4.88;;;17.70;99.90;;;;;;5056233;28;20039;-74
2021/08/08 04:33:47;;;;;;;15.18;4.78;;;17.70;99.90;;;;;;5053698;28;20354;-74
2021/08/08 04:36:12;;;;;;;13.13;4.28;;;17.70;99.90;;;;;;5054796;28;20499;-74
2021/08/08 04:38:39;;;;;;;14.20;4.70;;;17.70;99.90;;;;;;5048985;28;20025;-74
2021/08/08 04:41:05;;;;;;;15.55;4.25;;;17.70;99.90;;;;;;5045900;28;20484;-74
2021/08/08 04:43:30;;;;;;;17.27;4.75;;;17.70;99.90;;;;;;5048825;28;20033;-74
2021/08/08 04:45:56;;;;;;;16.17;5.18;;;17.60;99.90;;;;;;5046179;28;20025;-74
2021/08/08 04:48:22;;;;;;;15.07;4.10;;;17.60;99.90;;;;;;5059297;28;20373;-74
2021/08/08 04:50:47;;;;;;;20.88;6.25;;;17.60;99.90;;;;;;5053453;28;20437;-74
2021/08/08 04:53:17;;;;;;;15.65;4.50;;;17.70;99.90;;;;;;5053414;28;20074;-74
2021/08/08 04:55:44;;;;;;;15.85;4.80;;;17.50;99.90;;;;;;5055259;28;21560;-74
2021/08/08 04:58:10;;;;;;;17.13;5.40;;;17.60;99.90;;;;;;5040512;28;20423;-74
2021/08/08 05:00:36;;;;;;;15.20;4.85;;;17.50;99.90;;;;;;5057794;28;20022;-73
2021/08/08 05:03:02;;;;;;;23.45;5.63;;;17.50;99.90;;;;;;5059740;28;20032;-73
2021/08/08 05:05:28;;;;;;;15.85;4.65;;;17.50;99.90;;;;;;5052952;28;20125;-74
2021/08/08 05:07:54;;;;;;;15.23;4.70;;;17.60;99.90;;;;;;5052012;28;20074;-73
2021/08/08 05:10:24;;;;;;;11.80;4.20;;;17.70;99.90;;;;;;5056389;28;20408;-74
2021/08/08 05:12:50;;;;;;;18.08;6.13;;;17.70;99.90;;;;;;5063227;28;20059;-74
2021/08/08 05:15:15;;;;;;;20.58;5.38;;;17.70;99.90;;;;;;5054599;28;20060;-74
2021/08/08 05:17:41;;;;;;;20.70;5.07;;;17.60;99.90;;;;;;5057950;28;20017;-74
2021/08/08 05:20:08;;;;;;;15.43;3.67;;;17.60;99.90;;;;;;5053507;28;20380;-74
2021/08/08 05:22:34;;;;;;;17.95;4.85;;;17.60;99.90;;;;;;5062204;28;20068;-74
2021/08/08 05:25:00;;;;;;;19.52;4.97;;;17.70;99.90;;;;;;5057528;28;20346;-74
2021/08/08 05:27:26;;;;;;;12.10;4.47;;;17.70;99.90;;;;;;5057108;28;20170;-75
2021/08/08 05:29:51;;;;;;;14.93;4.85;;;17.60;99.90;;;;;;5059337;28;20043;-74
2021/08/08 05:32:17;;;;;;;16.20;4.63;;;17.70;99.90;;;;;;5045648;28;20033;-74
2021/08/08 05:34:42;;;;;;;13.32;4.35;;;17.80;99.90;;;;;;5057740;28;20028;-74
2021/08/08 05:37:08;;;;;;;20.35;4.47;;;17.70;99.90;;;;;;5057275;28;20021;-74
2021/08/08 05:39:34;;;;;;;17.30;5.40;;;17.60;99.90;;;;;;5056131;28;20028;-74
2021/08/08 05:41:59;;;;;;;19.05;5.20;;;17.70;99.90;;;;;;5058095;28;20079;-75
2021/08/08 05:44:25;;;;;;;19.30;5.85;;;17.70;99.90;;;;;;5057130;28;20045;-74
2021/08/08 05:46:50;;;;;;;9.98;4.32;;;17.60;99.90;;;;;;5043810;28;20487;-73
2021/08/08 05:49:16;;;;;;;14.75;4.65;;;17.70;99.90;;;;;;5056649;28;20444;-73
2021/08/08 05:51:42;;;;;;;17.65;5.00;;;17.70;99.90;;;;;;5056404;28;20017;-74
2021/08/08 05:54:08;;;;;;;16.35;4.65;;;17.60;99.90;;;;;;5047581;28;20044;-74
2021/08/08 05:56:34;;;;;;;17.10;5.40;;;17.70;99.90;;;;;;5056963;28;20112;-74
2021/08/08 05:58:59;;;;;;;17.63;5.75;;;17.80;99.90;;;;;;5053858;28;20028;-74
2021/08/08 06:01:25;;;;;;;16.50;4.53;;;17.90;99.90;;;;;;5052364;28;20040;-74
2021/08/08 06:03:51;;;;;;;15.10;4.22;;;17.80;99.90;;;;;;5031635;28;20123;-74
2021/08/08 06:06:17;;;;;;;15.48;4.22;;;17.80;99.90;;;;;;5053097;28;20354;-74
2021/08/08 06:08:43;;;;;;;12.90;4.28;;;17.80;99.90;;;;;;5028832;28;20373;-74
2021/08/08 06:11:08;;;;;;;13.32;4.75;;;17.70;99.90;;;;;;5048720;28;20029;-74
2021/08/08 06:13:34;;;;;;;14.93;4.03;;;17.80;99.90;;;;;;5057196;28;20443;-73
2021/08/08 06:16:00;;;;;;;15.88;3.92;;;17.80;99.90;;;;;;5052053;28;20028;-74
2021/08/08 06:18:26;;;;;;;13.45;4.25;;;17.80;99.90;;;;;;5057112;28;20032;-73
2021/08/08 06:20:51;;;;;;;12.10;4.60;;;17.80;99.90;;;;;;5051261;28;20032;-74
2021/08/08 06:23:17;;;;;;;10.65;4.07;;;17.80;99.90;;;;;;5053054;28;20063;-75
2021/08/08 06:25:43;;;;;;;23.23;5.45;;;18.00;99.90;;;;;;5053701;28;20028;-73
2021/08/08 06:28:09;;;;;;;15.65;4.47;;;17.90;99.90;;;;;;5059417;28;20024;-74
2021/08/08 06:30:34;;;;;;;15.55;4.40;;;17.90;99.90;;;;;;5052700;28;20029;-74
2021/08/08 06:33:00;;;;;;;19.30;5.25;;;18.00;99.90;;;;;;5049990;28;20388;-75
2021/08/08 06:35:26;;;;;;;23.55;6.00;;;18.10;99.90;;;;;;5060802;28;20088;-74
2021/08/08 06:37:51;;;;;;;16.73;4.75;;;18.20;99.90;;;;;;5059950;28;20024;-74
2021/08/08 06:40:17;;;;;;;15.35;4.18;;;18.10;99.90;;;;;;5049764;28;20026;-74
2021/08/08 06:42:43;;;;;;;19.55;4.72;;;18.10;99.90;;;;;;5050651;28;20051;-73
2021/08/08 06:45:09;;;;;;;17.00;4.95;;;18.10;99.90;;;;;;5057745;28;20539;-74
2021/08/08 06:47:35;;;;;;;17.95;4.10;;;18.00;99.90;;;;;;5052168;28;20030;-73
2021/08/08 06:50:00;;;;;;;17.85;4.18;;;18.10;99.90;;;;;;5049040;28;20066;-74
2021/08/08 06:52:26;;;;;;;12.82;4.43;;;18.10;99.90;;;;;;5056031;28;20472;-74
2021/08/08 06:54:52;;;;;;;13.27;4.72;;;18.20;99.90;;;;;;5053805;28;20063;-73
2021/08/08 06:57:28;;;;;;;17.25;5.28;;;18.20;99.90;;;;;;5053652;28;20067;-74
2021/08/08 06:59:54;;;;;;;17.70;5.03;;;18.20;99.90;;;;;;5064250;28;20078;-74
2021/08/08 07:02:20;;;;;;;15.80;5.50;;;18.30;99.90;;;;;;5043735;28;20477;-74
2021/08/08 07:04:47;;;;;;;12.55;5.05;;;18.30;99.90;;;;;;5053717;28;20466;-74
2021/08/08 07:07:12;;;;;;;16.35;5.00;;;18.30;99.90;;;;;;5061251;28;20468;-74
2021/08/08 07:09:38;;;;;;;17.85;5.50;;;18.10;99.90;;;;;;5054508;28;20052;-74
2021/08/08 07:12:04;;;;;;;18.38;5.30;;;18.10;99.90;;;;;;5049774;28;20025;-74
2021/08/08 07:14:34;;;;;;;15.68;5.05;;;18.20;99.90;;;;;;5055393;28;20033;-74
2021/08/08 07:17:00;;;;;;;21.10;4.30;;;18.20;99.90;;;;;;5054656;28;20017;-74
2021/08/08 07:19:26;;;;;;;13.85;4.35;;;18.20;99.90;;;;;;5048191;28;20029;-74
2021/08/08 07:21:53;;;;;;;22.50;5.25;;;18.40;99.90;;;;;;5050906;28;20018;-74
2021/08/08 07:24:19;;;;;;;15.00;4.88;;;18.50;99.90;;;;;;5052624;28;20152;-74
2021/08/08 07:26:45;;;;;;;18.88;4.95;;;18.60;99.90;;;;;;5052908;28;20052;-74
2021/08/08 07:29:11;;;;;;;13.50;4.63;;;18.70;99.90;;;;;;5058338;28;20103;-74
2021/08/08 07:31:36;;;;;;;12.50;4.20;;;18.70;99.90;;;;;;5059885;28;20021;-74
2021/08/08 07:34:02;;;;;;;13.45;4.90;;;18.70;99.90;;;;;;5050894;28;20029;-75
2021/08/08 07:36:28;;;;;;;14.07;4.85;;;18.90;99.90;;;;;;5051071;28;20021;-74
2021/08/08 07:38:53;;;;;;;17.13;4.18;;;18.80;99.90;;;;;;5055932;28;20454;-74
2021/08/08 07:41:19;;;;;;;19.10;4.90;;;18.70;99.90;;;;;;5045570;28;20024;-75
2021/08/08 07:43:45;;;;;;;14.75;4.88;;;18.60;99.90;;;;;;5043965;28;20037;-75
2021/08/08 07:46:10;;;;;;;19.70;5.07;;;18.60;99.90;;;;;;5062308;28;20029;-75
2021/08/08 07:48:36;;;;;;;15.50;4.45;;;18.60;99.90;;;;;;5053358;28;20036;-75
2021/08/08 07:51:02;;;;;;;15.52;4.82;;;18.70;99.90;;;;;;5053123;28;20025;-74
2021/08/08 07:53:28;;;;;;;11.35;4.88;;;18.70;99.90;;;;;;5060600;28;20100;-74
2021/08/08 07:55:55;;;;;;;15.50;4.20;;;18.80;99.90;;;;;;5052290;28;20013;-74
2021/08/08 07:58:24;;;;;;;14.90;4.65;;;18.90;99.90;;;;;;5060367;28;20025;-74
2021/08/08 08:00:50;;;;;;;18.50;5.55;;;19.10;99.90;;;;;;5053516;28;20013;-74
2021/08/08 08:03:16;;;;;;;17.73;5.07;;;19.30;99.90;;;;;;5063520;28;20040;-74
2021/08/08 08:05:42;;;;;;;18.20;4.93;;;19.20;99.90;;;;;;5057952;28;20096;-75
2021/08/08 08:08:09;;;;;;;15.35;4.65;;;19.20;99.90;;;;;;5057093;28;20103;-75
2021/08/08 08:10:35;;;;;;;15.10;4.72;;;19.30;99.90;;;;;;5056222;28;20041;-74
2021/08/08 08:13:01;;;;;;;15.18;4.57;;;19.20;99.90;;;;;;5062190;28;20021;-75
2021/08/08 08:15:28;;;;;;;14.02;4.78;;;19.20;99.90;;;;;;5051222;28;20034;-74
2021/08/08 08:17:54;;;;;;;14.68;4.68;;;19.10;99.90;;;;;;5059968;28;20021;-74
2021/08/08 08:20:21;;;;;;;20.25;4.75;;;19.00;99.90;;;;;;5065444;28;20013;-74
2021/08/08 08:22:47;;;;;;;11.00;4.55;;;19.00;99.90;;;;;;5056456;28;20029;-74
2021/08/08 08:25:12;;;;;;;19.30;5.32;;;19.00;99.90;;;;;;5053778;28;20115;-72
2021/08/08 08:27:40;;;;;;;12.70;4.03;;;19.00;99.90;;;;;;5048846;28;20468;-72
2021/08/08 08:30:07;;;;;;;16.33;4.40;;;19.10;99.90;;;;;;5055634;28;20484;-75
2021/08/08 08:32:33;;;;;;;16.05;4.40;;;19.10;99.90;;;;;;5055774;28;20134;-75
2021/08/08 08:35:03;;;;;;;15.88;4.38;;;19.10;99.90;;;;;;5050064;28;20493;-74
2021/08/08 08:37:30;;;;;;;16.05;4.43;;;19.20;99.90;;;;;;5056087;28;20029;-74
2021/08/08 08:39:56;;;;;;;12.32;4.35;;;19.20;99.90;;;;;;5060447;28;20032;-74
2021/08/08 08:42:22;;;;;;;12.93;4.10;;;19.30;99.90;;;;;;5054069;28;20025;-74
2021/08/08 08:44:52;;;;;;;11.77;3.65;;;19.50;99.90;;;;;;5070488;28;20534;-74
2021/08/08 08:47:19;;;;;;;19.25;4.43;;;19.70;99.90;;;;;;5055650;28;20021;-74
2021/08/08 08:49:50;;;;;;;15.52;4.30;;;19.70;99.90;;;;;;5059365;28;20058;-74
2021/08/08 08:52:22;;;;;;;14.60;4.57;;;19.70;99.90;;;;;;5051617;28;20448;-74
2021/08/08 08:54:47;;;;;;;11.53;3.97;;;19.70;99.90;;;;;;5052249;28;20958;-74
2021/08/08 08:57:14;;;;;;;12.00;4.00;;;19.60;99.90;;;;;;5052225;28;20266;-74
2021/08/08 08:59:40;;;;;;;14.15;5.03;;;19.60;99.90;;;;;;5060420;28;20035;-73
2021/08/08 09:02:06;;;;;;;16.50;3.88;;;19.60;99.90;;;;;;5054461;28;20051;-74
2021/08/08 09:04:32;;;;;;;22.23;4.47;;;19.50;99.90;;;;;;5046582;28;20482;-73
2021/08/08 09:06:59;;;;;;;15.07;4.18;;;19.50;99.90;;;;;;5055165;28;20020;-74
2021/08/08 09:09:24;;;;;;;12.20;4.13;;;19.60;99.90;;;;;;5054936;28;20399;-74
2021/08/08 09:11:51;;;;;;;15.93;4.75;;;19.70;99.90;;;;;;5049718;28;20021;-74
2021/08/08 09:14:17;;;;;;;16.08;4.97;;;19.50;99.90;;;;;;5050982;28;20036;-74
2021/08/08 09:16:44;;;;;;;12.90;3.53;;;19.50;99.90;;;;;;5062236;28;20029;-74
2021/08/08 09:19:27;;;;;;;12.65;3.45;;;19.70;99.90;;;;;;5063391;28;20016;-74
2021/08/08 09:21:54;;;;;;;10.63;3.55;;;19.70;99.90;;;;;;5049201;28;20025;-74
2021/08/08 09:24:32;;;;;;;11.05;3.47;;;19.60;99.90;;;;;;5054108;28;20033;-74
2021/08/08 09:27:12;;;;;;;13.77;3.90;;;19.60;99.90;;;;;;5054509;28;20021;-74
2021/08/08 09:29:41;;;;;;;10.77;3.28;;;19.60;99.90;;;;;;5056052;28;20099;-73
2021/08/08 09:32:08;;;;;;;13.20;3.85;;;19.50;99.90;;;;;;5047234;28;20021;-74
2021/08/08 09:34:37;;;;;;;13.10;3.53;;;19.60;99.90;;;;;;5051964;28;20194;-74
2021/08/08 09:37:03;;;;;;;13.68;3.63;;;19.70;99.90;;;;;;5052256;28;20421;-74
2021/08/08 09:39:45;;;;;;;13.20;4.07;;;19.90;99.90;;;;;;5054725;28;20507;-74
2021/08/08 09:42:11;;;;;;;14.27;3.63;;;19.70;99.90;;;;;;5059003;28;20099;-74
2021/08/08 09:44:49;;;;;;;10.82;3.95;;;19.70;99.90;;;;;;5054701;28;20532;-74
2021/08/08 09:47:14;;;;;;;10.35;3.20;;;19.60;99.90;;;;;;5051394;28;20051;-74
2021/08/08 09:49:40;;;;;;;10.85;3.00;;;19.80;99.90;;;;;;5062424;28;20021;-74
2021/08/08 09:52:06;;;;;;;12.43;3.85;;;19.70;99.90;;;;;;5060126;28;20114;-74
2021/08/08 09:54:37;;;;;;;9.95;3.15;;;19.80;99.90;;;;;;5056013;28;20060;-74
2021/08/08 09:57:04;;;;;;;13.35;3.30;;;19.90;99.90;;;;;;5059261;28;20120;-74
2021/08/08 09:59:30;;;;;;;9.77;3.05;;;20.00;99.90;;;;;;5059374;28;20028;-74
2021/08/08 10:01:56;;;;;;;15.88;3.35;;;19.90;99.90;;;;;;5050332;28;20028;-74
2021/08/08 10:04:25;;;;;;;12.52;3.20;;;20.00;99.90;;;;;;5055855;28;20119;-75
2021/08/08 10:06:51;;;;;;;7.03;3.08;;;20.00;99.90;;;;;;5055715;28;20041;-74
2021/08/08 10:09:17;;;;;;;10.77;2.72;;;19.80;99.90;;;;;;5057663;28;20543;-73
2021/08/08 10:11:46;;;;;;;9.13;2.40;;;19.80;99.90;;;;;;5060630;28;20112;-73
2021/08/08 10:14:14;;;;;;;10.75;3.35;;;19.90;99.90;;;;;;5058219;28;20455;-74
2021/08/08 10:16:41;;;;;;;11.35;3.03;;;19.90;99.90;;;;;;5054666;28;20036;-74
2021/08/08 10:19:09;;;;;;;12.10;2.90;;;20.00;99.90;;;;;;5054949;28;20075;-74
2021/08/08 10:21:41;;;;;;;11.93;2.65;;;20.00;99.90;;;;;;5047215;28;20589;-74
2021/08/08 10:24:09;;;;;;;11.75;3.00;;;19.80;99.90;;;;;;5049578;28;20029;-73
2021/08/08 10:26:35;;;;;;;9.13;2.78;;;19.90;99.90;;;;;;5052744;28;20025;-74
2021/08/08 10:29:02;;;;;;;11.52;3.33;;;20.00;99.90;;;;;;5048679;28;20024;-73
2021/08/08 10:31:31;;;;;;;7.80;2.45;;;20.00;99.90;;;;;;5050651;28;20499;-74
2021/08/08 10:33:58;;;;;;;9.52;3.10;;;20.20;99.90;;;;;;5051298;28;20029;-74
2021/08/08 10:36:28;;;;;;;9.32;2.50;;;20.50;99.90;;;;;;5053758;28;20079;-73
2021/08/08 10:39:15;;;;;;;9.15;2.90;;;20.50;99.90;;;;;;5048494;28;20100;-74
2021/08/08 10:41:42;;;;;;;10.98;2.60;;;20.60;99.90;;;;;;5045179;28;20482;-74
2021/08/08 10:44:13;;;;;;;9.45;2.38;;;20.90;99.90;;;;;;5030524;28;20497;-74
2021/08/08 10:46:46;;;;;;;4.28;2.00;;;21.20;99.90;;;;;;5053642;28;20031;-73
2021/08/08 10:49:12;;;;;;;8.60;2.80;;;21.40;99.90;;;;;;5052104;28;20048;-73
2021/08/08 10:51:38;;;;;;;6.50;2.40;;;21.40;99.90;;;;;;5050546;28;20052;-74
2021/08/08 10:54:06;;;;;;;5.80;3.30;;;21.20;99.90;;;;;;5048225;28;20021;-73
2021/08/08 10:56:48;;;;;;;11.23;2.50;;;21.00;99.90;;;;;;5051697;28;20473;-73
2021/08/08 10:59:16;;;;;;;8.38;2.80;;;20.80;99.90;;;;;;5050048;28;20024;-73
2021/08/08 11:01:42;;;;;;;9.13;2.30;;;21.00;99.90;;;;;;5043898;28;20052;-73
2021/08/08 11:04:07;;;;;;;6.00;2.50;;;21.00;99.90;;;;;;5044454;28;20029;-73
2021/08/08 11:06:34;;;;;;;8.73;2.33;;;21.40;99.90;;;;;;5056806;28;20043;-73
2021/08/08 11:09:02;;;;;;;7.28;2.60;;;21.70;99.90;;;;;;5049668;28;20063;-73
2021/08/08 11:11:30;;;;;;;9.77;2.95;;;21.70;99.90;;;;;;5047183;28;20028;-73
2021/08/08 11:14:14;;;;;;;6.13;2.55;;;22.10;99.90;;;;;;5043742;28;20032;-74
2021/08/08 11:16:44;;;;;;;12.52;2.88;;;22.20;99.90;;;;;;5052130;28;20029;-74
2021/08/08 11:19:11;;;;;;;5.22;2.80;;;22.20;99.90;;;;;;5061706;28;20032;-74
2021/08/08 11:21:38;;;;;;;6.22;2.28;;;22.30;99.90;;;;;;5047451;28;20492;-74
2021/08/08 11:24:07;;;;;;;9.63;3.00;;;21.80;99.90;;;;;;5044644;28;20037;-75
2021/08/08 11:26:33;;;;;;;7.05;2.10;;;22.00;99.90;;;;;;5053429;28;20031;-75
2021/08/08 11:29:02;;;;;;;4.88;2.50;;;21.90;99.90;;;;;;5025955;28;20021;-74
2021/08/08 11:31:30;;;;;;;7.70;2.08;;;22.00;99.90;;;;;;5030602;28;20022;-75
2021/08/08 11:34:01;;;;;;;5.45;2.05;;;21.80;99.90;;;;;;5050118;28;20029;-73
2021/08/08 11:36:29;;;;;;;4.72;1.95;;;21.90;99.90;;;;;;5055076;28;20021;-73
2021/08/08 11:38:56;;;;;;;5.10;2.42;;;21.90;99.90;;;;;;5056841;28;20024;-73
2021/08/08 11:41:23;;;;;;;6.20;2.28;;;22.30;99.90;;;;;;5060832;28;20410;-74
2021/08/08 11:43:59;;;;;;;5.65;2.13;;;22.40;99.90;;;;;;5046975;28;20029;-73
2021/08/08 11:46:25;;;;;;;9.63;2.60;;;22.30;99.90;;;;;;5055090;28;20036;-74
2021/08/08 11:48:51;;;;;;;5.53;2.00;;;22.10;99.90;;;;;;5056203;28;20024;-73
2021/08/08 11:51:20;;;;;;;8.35;2.35;;;21.90;99.90;;;;;;5054099;28;20017;-73
2021/08/08 11:53:55;;;;;;;4.60;1.90;;;22.10;99.90;;;;;;5059624;28;20024;-73
2021/08/08 11:56:25;;;;;;;5.78;2.15;;;22.40;99.90;;;;;;5057540;28;20098;-73
2021/08/08 11:58:53;;;;;;;5.68;1.90;;;22.40;99.90;;;;;;5050124;28;20056;-73
2021/08/08 12:01:20;;;;;;;8.07;2.13;;;22.50;99.90;;;;;;5056722;28;20021;-74
2021/08/08 12:04:03;;;;;;;4.85;2.20;;;22.30;99.90;;;;;;5051415;28;20548;-74
2021/08/08 12:06:29;;;;;;;6.25;2.08;;;22.40;99.90;;;;;;5064362;28;20020;-73
2021/08/08 12:08:56;;;;;;;4.45;2.15;;;22.30;99.90;;;;;;5056676;28;20099;-74
2021/08/08 12:11:22;;;;;;;5.97;1.80;;;22.20;99.90;;;;;;5060850;28;20025;-73
2021/08/08 12:14:07;;;;;;;7.05;2.00;;;22.40;99.90;;;;;;5056066;28;20033;-74
2021/08/08 12:16:37;;;;;;;6.93;1.77;;;22.60;99.90;;;;;;5050538;28;20028;-74
2021/08/08 12:19:07;;;;;;;6.63;2.15;;;22.90;99.90;;;;;;5055000;28;20017;-74
2021/08/08 12:21:40;;;;;;;5.38;2.00;;;23.20;99.90;;;;;;5054384;28;20079;-74
2021/08/08 12:24:07;;;;;;;3.00;1.67;;;23.40;99.90;;;;;;5055492;28;20033;-73
2021/08/08 12:26:32;;;;;;;3.70;1.70;;;23.30;99.90;;;;;;5058338;28;20020;-74
2021/08/08 12:29:00;;;;;;;3.67;1.75;;;23.60;99.90;;;;;;5052168;28;20032;-75
2021/08/08 12:31:37;;;;;;;6.35;1.70;;;23.90;99.90;;;;;;5047673;28;20016;-75
2021/08/08 12:34:06;;;;;;;4.55;1.83;;;23.80;99.90;;;;;;5054453;28;20070;-76
2021/08/08 12:36:42;;;;;;;3.72;1.60;;;23.60;99.90;;;;;;5060165;28;20643;-75